Time;durP1;ratioP1;P1;durP2;ratioP2;P2;SDS_P1;SDS_P2;PMS_P1;PMS_P2;Temp;Humidity;BMP_temperature;BMP_pressure;BME280_temperature;BME280_humidity;BME280_pressure;Samples;Min_cycle;Max_cycle;Signal;HPM_P1;HPM_P2
2021/06/26 00:01:33;;;;;;;1.03;1.03;;;15.00;99.90;;;;;;5052332;28;20182;-82
2021/06/26 00:03:58;;;;;;;0.37;0.37;;;15.00;99.90;;;;;;5069750;28;20212;-82
2021/06/26 00:06:24;;;;;;;0.60;0.60;;;15.00;99.90;;;;;;5071785;28;20190;-81
2021/06/26 00:08:52;;;;;;;0.70;0.70;;;15.00;99.90;;;;;;5056336;28;20181;-83
2021/06/26 00:11:19;;;;;;;1.30;0.90;;;15.00;99.90;;;;;;5070815;28;20671;-82
2021/06/26 00:13:45;;;;;;;0.40;0.40;;;15.20;99.90;;;;;;5058460;28;20223;-83
2021/06/26 00:16:10;;;;;;;0.50;0.50;;;15.40;99.90;;;;;;5054536;28;20729;-82
2021/06/26 00:18:36;;;;;;;0.77;0.77;;;15.30;99.90;;;;;;5056381;28;20182;-82
2021/06/26 00:21:02;;;;;;;0.53;0.50;;;15.40;99.90;;;;;;5056466;28;20279;-82
2021/06/26 00:23:28;;;;;;;0.73;0.73;;;15.30;99.90;;;;;;5069530;28;20255;-85
2021/06/26 00:25:53;;;;;;;0.20;0.20;;;15.20;99.90;;;;;;5072995;28;20177;-82
2021/06/26 00:28:19;;;;;;;1.07;0.57;;;15.20;99.90;;;;;;5074208;28;20187;-83
2021/06/26 00:30:45;;;;;;;0.73;0.73;;;15.10;99.90;;;;;;5059812;28;20188;-82
2021/06/26 00:33:10;;;;;;;0.37;0.37;;;15.10;99.90;;;;;;5074250;28;20213;-82
2021/06/26 00:35:36;;;;;;;0.47;0.47;;;15.10;99.90;;;;;;5074905;28;20190;-82
2021/06/26 00:38:02;;;;;;;0.57;0.57;;;15.10;99.90;;;;;;5056181;28;20666;-82
2021/06/26 00:40:27;;;;;;;0.50;0.50;;;15.10;99.90;;;;;;5061435;28;20186;-82
2021/06/26 00:42:53;;;;;;;0.53;0.50;;;15.00;99.90;;;;;;5056118;28;20201;-82
2021/06/26 00:45:19;;;;;;;4.93;0.60;;;14.90;99.90;;;;;;5062930;28;20712;-83
2021/06/26 00:47:46;;;;;;;0.40;0.40;;;14.80;99.90;;;;;;5056614;28;20179;-82
2021/06/26 00:50:20;;;;;;;0.40;0.40;;;14.80;99.90;;;;;;5076483;28;20208;-82
2021/06/26 00:52:46;;;;;;;0.50;0.50;;;14.70;99.90;;;;;;5072761;28;20213;-82
2021/06/26 00:55:14;;;;;;;0.33;0.33;;;14.90;99.90;;;;;;5061127;28;20197;-82
2021/06/26 00:57:43;;;;;;;0.33;0.33;;;14.90;99.90;;;;;;5073405;28;20669;-82
2021/06/26 01:00:10;;;;;;;0.97;0.53;;;14.90;99.90;;;;;;5073916;28;20181;-82
2021/06/26 01:02:36;;;;;;;0.30;0.30;;;14.80;99.90;;;;;;5074127;28;20213;-81
2021/06/26 01:05:02;;;;;;;0.77;0.77;;;14.70;99.90;;;;;;5062505;28;20208;-81
2021/06/26 01:07:28;;;;;;;0.60;0.60;;;14.60;99.90;;;;;;5074845;28;20186;-82
2021/06/26 01:09:54;;;;;;;0.90;0.77;;;14.50;99.90;;;;;;5073494;28;20165;-82
2021/06/26 01:12:20;;;;;;;0.60;0.60;;;14.50;99.90;;;;;;5055952;28;20190;-82
2021/06/26 01:14:49;;;;;;;0.30;0.30;;;14.40;99.90;;;;;;5064745;28;20577;-83
2021/06/26 01:17:14;;;;;;;0.67;0.50;;;14.40;99.90;;;;;;5055553;28;20189;-81
2021/06/26 01:19:40;;;;;;;0.57;0.57;;;14.30;99.90;;;;;;5061771;28;20181;-82
2021/06/26 01:22:06;;;;;;;0.40;0.40;;;14.30;99.90;;;;;;5053658;28;20206;-82
2021/06/26 01:24:33;;;;;;;0.40;0.40;;;14.30;99.90;;;;;;5071755;28;20209;-81
2021/06/26 01:26:59;;;;;;;0.50;0.50;;;14.30;99.90;;;;;;5054727;28;20237;-82
2021/06/26 01:29:26;;;;;;;0.57;0.57;;;14.40;99.90;;;;;;5055651;28;20213;-83
2021/06/26 01:31:52;;;;;;;0.60;0.43;;;14.40;99.90;;;;;;5074013;28;20255;-82
2021/06/26 01:34:18;;;;;;;0.60;0.40;;;14.50;99.90;;;;;;5057164;28;20288;-82
2021/06/26 01:36:43;;;;;;;0.30;0.30;;;14.50;99.90;;;;;;5072680;28;20173;-82
2021/06/26 01:39:09;;;;;;;1.80;0.50;;;14.50;99.90;;;;;;5062481;28;20177;-82
2021/06/26 01:41:35;;;;;;;0.47;0.40;;;14.60;99.90;;;;;;5073873;28;20207;-82
2021/06/26 01:44:02;;;;;;;0.60;0.43;;;14.50;99.90;;;;;;5080128;28;20621;-82
2021/06/26 01:46:27;;;;;;;0.63;0.63;;;14.40;99.90;;;;;;5056126;28;20280;-82
2021/06/26 01:49:03;;;;;;;0.30;0.30;;;14.40;99.90;;;;;;5070423;28;20264;-82
2021/06/26 01:51:31;;;;;;;0.37;0.37;;;14.40;99.90;;;;;;5050658;28;20180;-82
2021/06/26 01:53:58;;;;;;;0.97;0.97;;;14.40;99.90;;;;;;5071159;28;20293;-82
2021/06/26 01:56:23;;;;;;;1.73;0.90;;;14.40;99.90;;;;;;5056299;28;20194;-82
2021/06/26 01:58:49;;;;;;;0.73;0.50;;;14.30;99.90;;;;;;5057015;28;20188;-82
2021/06/26 02:01:15;;;;;;;0.50;0.50;;;14.30;99.90;;;;;;5062035;28;20380;-81
2021/06/26 02:03:40;;;;;;;0.63;0.63;;;14.20;99.90;;;;;;5075539;28;20239;-82
2021/06/26 02:06:06;;;;;;;0.83;0.63;;;14.40;99.90;;;;;;5057257;28;20185;-82
2021/06/26 02:08:32;;;;;;;0.23;0.23;;;14.60;99.90;;;;;;5084170;28;20189;-82
2021/06/26 02:10:57;;;;;;;0.30;0.30;;;14.80;99.90;;;;;;5070623;28;20550;-82
2021/06/26 02:13:23;;;;;;;1.00;0.47;;;14.90;99.90;;;;;;5067680;28;20270;-82
2021/06/26 02:15:49;;;;;;;0.63;0.50;;;15.00;99.90;;;;;;5069985;28;20195;-82
2021/06/26 02:18:14;;;;;;;0.47;0.47;;;15.00;99.90;;;;;;5077289;28;20193;-82
2021/06/26 02:20:40;;;;;;;0.40;0.30;;;15.10;99.90;;;;;;5067736;28;20193;-85
2021/06/26 02:23:05;;;;;;;0.43;0.43;;;15.20;99.90;;;;;;5065525;28;20235;-84
2021/06/26 02:25:32;;;;;;;1.83;0.70;;;15.20;99.90;;;;;;5069355;28;20184;-83
2021/06/26 02:27:57;;;;;;;0.33;0.33;;;15.20;99.90;;;;;;5071749;28;20209;-82
2021/06/26 02:30:23;;;;;;;0.33;0.33;;;15.20;99.90;;;;;;5070989;28;20216;-82
2021/06/26 02:32:48;;;;;;;0.67;0.67;;;15.20;99.90;;;;;;5061236;28;20579;-82
2021/06/26 02:35:14;;;;;;;0.27;0.20;;;15.10;99.90;;;;;;5054747;28;20246;-82
2021/06/26 02:37:40;;;;;;;0.43;0.30;;;15.10;99.90;;;;;;5056490;28;20193;-81
2021/06/26 02:40:06;;;;;;;0.77;0.60;;;15.10;99.90;;;;;;5073465;28;20547;-82
2021/06/26 02:42:32;;;;;;;2.37;1.37;;;15.10;99.90;;;;;;5087285;28;20243;-81
2021/06/26 02:44:57;;;;;;;0.40;0.40;;;15.10;99.90;;;;;;5055564;28;20182;-82
2021/06/26 02:47:23;;;;;;;0.37;0.27;;;15.10;99.90;;;;;;5071683;28;20189;-82
2021/06/26 02:49:49;;;;;;;0.60;0.60;;;15.10;99.90;;;;;;5054428;28;20688;-82
2021/06/26 02:52:16;;;;;;;0.57;0.57;;;15.20;99.90;;;;;;5069711;28;20181;-82
2021/06/26 02:54:42;;;;;;;0.47;0.40;;;15.20;99.90;;;;;;5052664;28;20684;-81
2021/06/26 02:57:08;;;;;;;0.30;0.30;;;15.10;99.90;;;;;;5072782;28;20216;-82
2021/06/26 02:59:33;;;;;;;0.53;0.40;;;14.90;99.90;;;;;;5072333;28;20264;-82
2021/06/26 03:01:59;;;;;;;0.43;0.43;;;15.00;99.90;;;;;;5054261;28;20608;-80
2021/06/26 03:04:25;;;;;;;0.43;0.43;;;15.00;99.90;;;;;;5056266;28;20209;-82
2021/06/26 03:06:50;;;;;;;0.70;0.47;;;15.00;99.90;;;;;;5072237;28;20182;-81
2021/06/26 03:09:16;;;;;;;0.50;0.50;;;15.10;99.90;;;;;;5070988;28;20557;-82
2021/06/26 03:11:41;;;;;;;0.47;0.47;;;15.20;99.90;;;;;;5068316;28;20192;-82
2021/06/26 03:14:07;;;;;;;0.77;0.77;;;15.20;99.90;;;;;;5064733;28;20286;-82
2021/06/26 03:16:33;;;;;;;0.67;0.60;;;14.90;99.90;;;;;;5042406;28;20177;-82
2021/06/26 03:18:58;;;;;;;0.53;0.53;;;14.90;99.90;;;;;;5059983;28;20185;-79
2021/06/26 03:21:24;;;;;;;0.47;0.40;;;14.90;99.90;;;;;;5066172;28;20193;-83
2021/06/26 03:23:49;;;;;;;0.50;0.50;;;15.00;99.90;;;;;;5059824;28;20204;-82
2021/06/26 03:26:15;;;;;;;0.40;0.40;;;15.00;99.90;;;;;;5078821;28;20196;-82
2021/06/26 03:28:41;;;;;;;0.60;0.43;;;14.90;99.90;;;;;;5058067;28;20246;-81
2021/06/26 03:31:06;;;;;;;0.57;0.43;;;14.90;99.90;;;;;;5079454;28;20176;-82
2021/06/26 03:33:32;;;;;;;0.60;0.60;;;14.80;99.90;;;;;;5068844;28;20224;-80
2021/06/26 03:35:58;;;;;;;0.40;0.30;;;14.80;99.90;;;;;;5053999;28;20656;-82
2021/06/26 03:38:24;;;;;;;0.40;0.40;;;14.80;99.90;;;;;;5060704;28;20181;-82
2021/06/26 03:40:50;;;;;;;0.57;0.43;;;15.20;99.90;;;;;;5053530;28;20683;-82
2021/06/26 03:43:16;;;;;;;0.20;0.20;;;15.80;99.90;;;;;;5058215;28;20301;-82
2021/06/26 03:45:42;;;;;;;0.50;0.50;;;16.00;99.90;;;;;;5054800;28;20189;-82
2021/06/26 03:48:08;;;;;;;0.20;0.20;;;16.10;99.90;;;;;;5057076;28;20732;-82
2021/06/26 03:50:35;;;;;;;0.40;0.40;;;16.00;99.90;;;;;;5060323;28;20262;-82
2021/06/26 03:53:01;;;;;;;0.70;0.70;;;16.00;99.90;;;;;;5062215;28;20235;-83
2021/06/26 03:55:27;;;;;;;0.60;0.60;;;16.30;99.90;;;;;;5069246;28;20283;-83
2021/06/26 03:57:52;;;;;;;0.47;0.47;;;16.30;99.90;;;;;;5048475;28;20179;-83
2021/06/26 04:00:18;;;;;;;0.43;0.40;;;17.10;99.90;;;;;;5066036;28;20232;-83
2021/06/26 04:02:44;;;;;;;0.33;0.33;;;16.70;99.90;;;;;;5073826;28;20224;-83
2021/06/26 04:05:10;;;;;;;0.50;0.50;;;16.80;99.90;;;;;;5051441;28;20191;-83
2021/06/26 04:07:35;;;;;;;0.60;0.60;;;17.20;99.90;;;;;;5073738;28;20195;-83
2021/06/26 04:10:01;;;;;;;0.40;0.40;;;17.80;99.90;;;;;;5055728;28;20662;-83
2021/06/26 04:12:27;;;;;;;0.30;0.30;;;18.60;99.90;;;;;;5055790;28;20191;-83
2021/06/26 04:14:52;;;;;;;0.80;0.80;;;18.80;99.90;;;;;;5056392;28;20191;-83
2021/06/26 04:17:18;;;;;;;1.07;1.07;;;19.00;99.90;;;;;;5073589;28;20196;-82
2021/06/26 04:19:44;;;;;;;0.40;0.40;;;20.00;99.90;;;;;;5055517;28;20679;-83
2021/06/26 04:22:09;;;;;;;1.13;0.90;;;21.00;99.90;;;;;;5055763;28;20184;-83
2021/06/26 04:24:35;;;;;;;0.70;0.70;;;21.10;99.90;;;;;;5073591;28;20666;-83
2021/06/26 04:27:00;;;;;;;0.40;0.40;;;21.60;99.90;;;;;;5069905;28;20530;-82
2021/06/26 04:29:26;;;;;;;1.40;0.83;;;21.60;99.90;;;;;;5059038;28;20175;-83
2021/06/26 04:31:52;;;;;;;0.60;0.60;;;20.90;99.90;;;;;;5072965;28;20185;-83
2021/06/26 04:34:17;;;;;;;0.83;0.73;;;20.00;99.90;;;;;;5070314;28;21117;-83
2021/06/26 04:36:44;;;;;;;1.20;0.70;;;19.10;99.90;;;;;;5073448;28;20264;-83
2021/06/26 04:39:10;;;;;;;0.93;0.63;;;18.40;99.90;;;;;;5068411;28;20656;-83
2021/06/26 04:41:36;;;;;;;0.70;0.70;;;18.40;99.90;;;;;;5053951;28;20279;-83
2021/06/26 04:44:03;;;;;;;0.50;0.50;;;18.50;99.90;;;;;;5054634;28;20312;-83
2021/06/26 04:46:29;;;;;;;0.67;0.67;;;18.40;99.90;;;;;;5072669;28;20177;-85
2021/06/26 04:48:55;;;;;;;0.80;0.80;;;18.30;99.90;;;;;;5064139;28;20210;-84
2021/06/26 04:51:20;;;;;;;1.63;0.67;;;18.50;99.90;;;;;;5055827;28;20661;-85
2021/06/26 04:53:46;;;;;;;0.17;0.17;;;18.00;99.90;;;;;;5074121;28;20583;-85
2021/06/26 04:56:12;;;;;;;0.63;0.63;;;17.50;99.90;;;;;;5078048;28;20243;-86
2021/06/26 04:58:37;;;;;;;1.30;0.97;;;17.10;99.90;;;;;;5058295;28;20291;-83
2021/06/26 05:01:03;;;;;;;0.47;0.47;;;16.90;99.90;;;;;;5054631;28;20192;-83
2021/06/26 05:03:29;;;;;;;0.77;0.70;;;16.90;99.90;;;;;;5071417;28;20211;-81
2021/06/26 05:05:55;;;;;;;0.30;0.30;;;16.80;99.90;;;;;;5075779;28;20544;-83
2021/06/26 05:08:21;;;;;;;0.43;0.43;;;16.80;99.90;;;;;;5045095;28;20185;-85
2021/06/26 05:10:48;;;;;;;0.30;0.30;;;16.90;99.90;;;;;;5051927;28;20181;-85
2021/06/26 05:13:14;;;;;;;0.53;0.37;;;17.20;99.90;;;;;;5053845;28;20246;-84
2021/06/26 05:15:43;;;;;;;3.40;0.33;;;17.60;99.90;;;;;;5064937;28;20208;-83
2021/06/26 05:18:10;;;;;;;0.50;0.43;;;17.70;99.90;;;;;;5063408;28;20188;-84
2021/06/26 05:20:35;;;;;;;0.60;0.60;;;17.40;99.90;;;;;;5075624;28;20180;-85
2021/06/26 05:23:13;;;;;;;0.50;0.50;;;17.30;99.90;;;;;;5068817;28;20215;-82
2021/06/26 05:25:39;;;;;;;0.87;0.40;;;17.50;99.90;;;;;;5075084;28;20188;-83
2021/06/26 05:28:04;;;;;;;0.97;0.67;;;17.40;99.90;;;;;;5065675;28;20184;-82
2021/06/26 05:30:30;;;;;;;0.77;0.77;;;17.80;99.90;;;;;;5069935;28;20184;-81
2021/06/26 05:32:56;;;;;;;0.50;0.47;;;18.10;99.90;;;;;;5068709;28;20215;-82
2021/06/26 05:35:21;;;;;;;0.90;0.57;;;18.40;99.90;;;;;;5069097;28;20804;-81
2021/06/26 05:37:47;;;;;;;1.80;1.03;;;18.00;99.90;;;;;;5056619;28;20191;-83
2021/06/26 05:40:13;;;;;;;2.20;0.77;;;17.60;99.90;;;;;;5053614;28;20591;-83
2021/06/26 05:42:39;;;;;;;0.87;0.70;;;17.70;99.90;;;;;;5055240;28;20236;-83
2021/06/26 05:45:05;;;;;;;0.50;0.50;;;17.70;99.90;;;;;;5057505;28;20184;-81
2021/06/26 05:47:31;;;;;;;0.50;0.50;;;18.00;99.90;;;;;;5084815;28;20188;-83
2021/06/26 05:49:57;;;;;;;0.50;0.50;;;18.30;99.90;;;;;;5071313;28;20180;-83
2021/06/26 05:52:22;;;;;;;0.53;0.53;;;18.50;99.90;;;;;;5060715;28;20181;-82
2021/06/26 05:54:48;;;;;;;0.73;0.73;;;18.40;99.90;;;;;;5055621;28;20236;-82
2021/06/26 05:57:14;;;;;;;1.27;0.80;;;18.70;99.90;;;;;;5062044;28;20669;-84
2021/06/26 05:59:39;;;;;;;0.73;0.73;;;19.00;99.90;;;;;;5070840;28;20183;-83
2021/06/26 06:02:10;;;;;;;0.73;0.60;;;19.10;99.90;;;;;;5071735;28;20238;-82
2021/06/26 06:04:35;;;;;;;0.60;0.30;;;19.20;99.90;;;;;;5072100;28;20201;-83
2021/06/26 06:07:02;;;;;;;0.40;0.40;;;19.30;99.90;;;;;;5071937;28;20181;-82
2021/06/26 06:09:27;;;;;;;0.43;0.30;;;19.40;99.90;;;;;;5058042;28;20184;-86
2021/06/26 06:11:53;;;;;;;1.07;0.57;;;19.60;99.90;;;;;;5053728;28;20549;-83
2021/06/26 06:14:18;;;;;;;0.93;0.87;;;19.70;99.90;;;;;;5053397;28;20677;-84
2021/06/26 06:16:44;;;;;;;2.47;0.63;;;19.80;99.90;;;;;;5070995;28;20211;-82
2021/06/26 06:19:10;;;;;;;0.40;0.40;;;19.50;99.90;;;;;;5070717;28;20201;-84
2021/06/26 06:21:35;;;;;;;0.63;0.63;;;19.50;99.90;;;;;;5081293;28;20547;-83
2021/06/26 06:24:01;;;;;;;0.70;0.70;;;19.80;99.90;;;;;;5073871;28;20349;-84
2021/06/26 06:26:27;;;;;;;0.30;0.30;;;20.00;99.90;;;;;;5065342;28;20205;-84
2021/06/26 06:28:52;;;;;;;0.43;0.43;;;20.00;99.90;;;;;;5072613;28;20731;-84
2021/06/26 06:31:18;;;;;;;1.23;1.10;;;20.20;99.90;;;;;;5073557;28;20177;-83
2021/06/26 06:33:43;;;;;;;0.53;0.47;;;20.10;99.90;;;;;;5055129;28;20259;-83
2021/06/26 06:36:09;;;;;;;0.80;0.80;;;20.30;99.90;;;;;;5092827;28;20721;-84
2021/06/26 06:38:35;;;;;;;0.83;0.83;;;20.30;99.90;;;;;;5074569;28;20291;-84
2021/06/26 06:41:01;;;;;;;1.33;0.80;;;20.30;99.90;;;;;;5074971;28;20731;-84
2021/06/26 06:43:27;;;;;;;0.93;0.83;;;20.50;99.90;;;;;;5074772;28;20268;-84
2021/06/26 06:45:53;;;;;;;1.13;1.03;;;20.50;99.90;;;;;;5074798;28;20660;-84
2021/06/26 06:48:18;;;;;;;2.07;1.43;;;20.60;99.90;;;;;;5059183;28;20246;-84
2021/06/26 06:50:44;;;;;;;1.13;1.13;;;20.70;99.90;;;;;;5054531;28;20208;-83
2021/06/26 06:53:09;;;;;;;1.40;1.30;;;20.80;99.90;;;;;;5070957;28;20315;-84
2021/06/26 06:55:35;;;;;;;1.57;1.00;;;20.90;99.90;;;;;;5054305;28;20249;-84
2021/06/26 06:58:01;;;;;;;2.33;0.70;;;21.00;99.90;;;;;;5054591;28;20197;-84
2021/06/26 07:00:27;;;;;;;0.57;0.57;;;21.00;99.90;;;;;;5054356;28;20184;-84
2021/06/26 07:02:52;;;;;;;2.30;1.23;;;21.20;99.90;;;;;;5054137;28;20300;-84
2021/06/26 07:05:18;;;;;;;2.20;1.23;;;21.30;99.90;;;;;;5054378;28;20282;-83
2021/06/26 07:07:44;;;;;;;1.43;1.33;;;21.00;99.90;;;;;;5054076;28;20181;-83
2021/06/26 07:10:10;;;;;;;1.60;0.70;;;19.90;99.90;;;;;;5054393;28;20185;-84
2021/06/26 07:12:36;;;;;;;1.20;1.10;;;20.20;99.90;;;;;;5072339;28;20228;-84
2021/06/26 07:15:03;;;;;;;0.90;0.90;;;20.20;99.90;;;;;;5054142;28;20226;-83
2021/06/26 07:17:28;;;;;;;0.40;0.40;;;20.50;99.90;;;;;;5071828;28;20275;-82
2021/06/26 07:19:54;;;;;;;1.10;1.10;;;20.90;99.90;;;;;;5054039;28;20757;-83
2021/06/26 07:22:19;;;;;;;0.93;0.93;;;21.20;99.90;;;;;;5053901;28;20213;-84
2021/06/26 07:24:45;;;;;;;1.43;1.23;;;21.50;99.90;;;;;;5070890;28;20185;-84
2021/06/26 07:27:11;;;;;;;0.77;0.77;;;21.80;99.90;;;;;;5069701;28;20544;-84
2021/06/26 07:29:36;;;;;;;1.20;0.73;;;21.60;99.90;;;;;;5070883;28;20652;-84
2021/06/26 07:32:02;;;;;;;0.70;0.70;;;21.90;99.90;;;;;;5072509;28;20226;-84
2021/06/26 07:34:28;;;;;;;1.07;1.00;;;22.10;99.90;;;;;;5073855;28;20568;-84
2021/06/26 07:36:53;;;;;;;0.67;0.57;;;22.20;99.90;;;;;;5091714;28;20172;-84
2021/06/26 07:39:19;;;;;;;0.60;0.60;;;22.30;99.90;;;;;;5092030;28;20181;-84
2021/06/26 07:41:45;;;;;;;2.70;1.10;;;22.10;99.90;;;;;;5073523;28;20270;-83
2021/06/26 07:44:11;;;;;;;0.40;0.40;;;22.00;99.90;;;;;;5073860;28;20223;-84
2021/06/26 07:46:36;;;;;;;0.80;0.77;;;22.10;99.90;;;;;;5073830;28;20275;-84
2021/06/26 07:49:02;;;;;;;1.00;1.00;;;22.10;99.90;;;;;;5073984;28;20266;-84
2021/06/26 07:51:28;;;;;;;0.53;0.53;;;21.90;99.90;;;;;;5073531;28;20181;-83
2021/06/26 07:53:53;;;;;;;1.53;0.87;;;22.30;99.90;;;;;;5069281;28;20299;-84
2021/06/26 07:56:19;;;;;;;1.37;1.00;;;22.50;99.90;;;;;;5053298;28;20231;-84
2021/06/26 07:58:45;;;;;;;1.10;1.00;;;22.80;99.90;;;;;;5071488;28;20688;-84
2021/06/26 08:01:11;;;;;;;0.83;0.73;;;22.80;99.90;;;;;;5070165;28;20558;-84
2021/06/26 08:03:36;;;;;;;0.60;0.60;;;23.10;99.90;;;;;;5053860;28;20587;-84
2021/06/26 08:06:02;;;;;;;1.40;1.10;;;23.20;99.90;;;;;;5053576;28;20181;-84
2021/06/26 08:08:28;;;;;;;0.97;0.90;;;22.80;99.90;;;;;;5071057;28;20192;-84
2021/06/26 08:10:53;;;;;;;3.30;1.47;;;22.30;99.90;;;;;;5053458;28;20541;-83
2021/06/26 08:13:19;;;;;;;1.10;1.00;;;22.20;99.90;;;;;;5053279;28;20232;-84
2021/06/26 08:15:46;;;;;;;0.70;0.70;;;22.70;99.90;;;;;;5071529;28;20181;-84
2021/06/26 08:18:13;;;;;;;3.43;0.80;;;22.80;99.90;;;;;;5053131;28;20212;-84
2021/06/26 08:20:39;;;;;;;0.87;0.77;;;23.20;99.90;;;;;;5053527;28;20546;-84
2021/06/26 08:23:05;;;;;;;1.10;1.07;;;23.00;99.90;;;;;;5053035;28;20232;-84
2021/06/26 08:25:31;;;;;;;1.03;1.00;;;22.60;99.90;;;;;;5071146;28;20178;-84
2021/06/26 08:27:57;;;;;;;1.70;1.20;;;22.40;99.90;;;;;;5070521;28;20179;-84
2021/06/26 08:30:23;;;;;;;0.20;0.20;;;22.90;99.90;;;;;;5053212;28;20181;-84
2021/06/26 08:32:50;;;;;;;1.30;1.20;;;23.30;99.90;;;;;;5060917;28;20227;-84
2021/06/26 08:35:16;;;;;;;0.73;0.73;;;22.80;99.90;;;;;;5073355;28;20575;-84
2021/06/26 08:37:43;;;;;;;1.40;1.23;;;22.80;99.90;;;;;;5090956;28;20244;-84
2021/06/26 08:40:11;;;;;;;1.60;1.17;;;22.90;99.90;;;;;;5073392;28;20184;-84
2021/06/26 08:42:37;;;;;;;1.90;1.73;;;22.90;99.90;;;;;;5073143;28;20295;-84
2021/06/26 08:45:16;;;;;;;1.87;1.43;;;22.90;99.90;;;;;;5073435;28;20267;-84
2021/06/26 08:47:44;;;;;;;1.13;1.00;;;23.50;99.90;;;;;;5076206;28;20597;-84
2021/06/26 08:50:10;;;;;;;1.60;1.50;;;24.00;99.90;;;;;;5094711;28;20187;-84
2021/06/26 08:52:36;;;;;;;3.23;2.03;;;23.90;99.90;;;;;;5094800;28;20223;-84
2021/06/26 08:55:02;;;;;;;2.40;1.60;;;23.30;99.90;;;;;;5080808;28;20181;-84
2021/06/26 08:57:33;;;;;;;0.70;0.70;;;23.40;99.90;;;;;;5056978;28;20193;-84
2021/06/26 09:00:00;;;;;;;1.60;1.37;;;23.70;99.90;;;;;;5056729;28;20184;-83
2021/06/26 09:02:27;;;;;;;1.37;1.00;;;23.60;99.90;;;;;;5056509;28;20217;-84
2021/06/26 09:04:54;;;;;;;1.10;0.80;;;23.40;99.90;;;;;;5056339;28;20185;-84
2021/06/26 09:07:36;;;;;;;0.80;0.73;;;23.80;99.90;;;;;;5056073;28;20209;-84
2021/06/26 09:10:20;;;;;;;0.80;0.80;;;24.10;99.90;;;;;;5056282;28;20187;-84
2021/06/26 09:12:48;;;;;;;1.97;1.17;;;24.60;99.90;;;;;;5058973;28;20258;-84
2021/06/26 09:15:24;;;;;;;0.90;0.90;;;24.30;99.90;;;;;;5055993;28;20185;-85
2021/06/26 09:17:51;;;;;;;0.63;0.60;;;24.60;99.90;;;;;;5055541;28;20188;-84
2021/06/26 09:20:17;;;;;;;1.90;0.63;;;25.00;99.90;;;;;;5060578;28;20248;-84
2021/06/26 09:22:50;;;;;;;1.20;0.80;;;24.90;99.90;;;;;;5082541;28;20232;-84
2021/06/26 09:25:29;;;;;;;0.97;0.70;;;24.60;99.90;;;;;;5068835;28;20181;-84
2021/06/26 09:27:56;;;;;;;1.03;0.97;;;24.90;99.90;;;;;;5067033;28;20191;-83
2021/06/26 09:30:43;;;;;;;1.23;1.00;;;24.30;99.90;;;;;;5080420;28;20188;-84
2021/06/26 09:33:20;;;;;;;1.07;0.67;;;24.70;99.90;;;;;;5053808;28;20582;-84
2021/06/26 09:35:58;;;;;;;0.70;0.70;;;25.30;99.90;;;;;;5073241;28;20264;-83
2021/06/26 09:38:24;;;;;;;1.03;0.87;;;25.10;99.90;;;;;;5056895;28;20184;-84
2021/06/26 09:40:49;;;;;;;1.13;0.73;;;24.80;99.90;;;;;;5075111;28;20234;-84
2021/06/26 09:43:29;;;;;;;0.60;0.60;;;25.10;99.90;;;;;;5055943;28;20216;-84
2021/06/26 09:46:09;;;;;;;0.70;0.60;;;25.10;99.90;;;;;;5056532;28;20185;-84
2021/06/26 09:48:55;;;;;;;0.90;0.60;;;25.20;99.90;;;;;;5073682;28;20550;-84
2021/06/26 09:51:30;;;;;;;1.20;1.10;;;25.10;99.90;;;;;;5056145;28;20238;-84
2021/06/26 09:54:01;;;;;;;1.00;0.90;;;24.90;99.90;;;;;;5055588;28;20311;-84
2021/06/26 09:56:45;;;;;;;0.90;0.80;;;24.50;99.90;;;;;;5072175;28;20609;-84
2021/06/26 09:59:12;;;;;;;0.97;0.93;;;24.50;99.90;;;;;;5055859;28;20188;-84
2021/06/26 10:01:42;;;;;;;0.60;0.60;;;24.10;99.90;;;;;;5055464;28;20277;-84
2021/06/26 10:04:10;;;;;;;0.90;0.90;;;24.80;99.90;;;;;;5055395;28;20303;-84
2021/06/26 10:06:37;;;;;;;0.50;0.50;;;25.50;99.90;;;;;;5055126;28;20189;-83
2021/06/26 10:09:06;;;;;;;0.80;0.80;;;25.70;99.90;;;;;;5055161;28;20223;-83
2021/06/26 10:11:33;;;;;;;0.67;0.67;;;26.00;99.90;;;;;;5072169;28;20188;-84
2021/06/26 10:14:06;;;;;;;0.57;0.57;;;26.20;99.90;;;;;;5073395;28;20295;-84
2021/06/26 10:16:34;;;;;;;0.67;0.50;;;26.60;99.90;;;;;;5072913;28;20181;-85
2021/06/26 10:19:00;;;;;;;0.87;0.73;;;26.80;99.90;;;;;;5073466;28;20185;-84
2021/06/26 10:21:28;;;;;;;0.70;0.70;;;26.30;99.90;;;;;;5073440;28;20181;-85
2021/06/26 10:23:56;;;;;;;0.90;0.80;;;26.70;99.90;;;;;;5055414;28;20216;-85
2021/06/26 10:26:26;;;;;;;0.87;0.87;;;26.30;99.90;;;;;;5055304;28;20693;-84
2021/06/26 10:28:59;;;;;;;0.70;0.63;;;26.20;99.90;;;;;;5072045;28;20185;-85
2021/06/26 10:31:34;;;;;;;1.10;0.93;;;26.50;99.90;;;;;;5055243;28;20195;-84
2021/06/26 10:34:14;;;;;;;0.40;0.40;;;26.50;99.90;;;;;;5072426;28;20208;-85
2021/06/26 10:36:43;;;;;;;1.10;1.00;;;26.50;99.90;;;;;;5074708;28;20199;-85
2021/06/26 10:39:27;;;;;;;0.40;0.40;;;27.00;99.90;;;;;;5075047;28;20198;-84
2021/06/26 10:42:05;;;;;;;0.60;0.60;;;27.50;99.90;;;;;;5074780;28;20195;-85
2021/06/26 10:44:51;;;;;;;0.50;0.50;;;27.00;99.90;;;;;;5085310;28;20210;-84
2021/06/26 10:47:19;;;;;;;0.70;0.70;;;26.80;99.90;;;;;;5072305;28;20263;-84
2021/06/26 10:49:45;;;;;;;0.93;0.80;;;27.10;99.90;;;;;;5054854;28;20193;-84
2021/06/26 10:52:19;;;;;;;0.47;0.47;;;27.50;99.90;;;;;;5054675;28;20275;-85
2021/06/26 10:54:52;;;;;;;0.50;0.50;;;27.90;99.90;;;;;;5045624;28;20186;-84
2021/06/26 10:57:17;;;;;;;0.63;0.63;;;27.90;99.90;;;;;;5074237;28;20188;-84
2021/06/26 11:00:00;;;;;;;0.50;0.50;;;27.70;99.90;;;;;;5074627;28;20211;-85
2021/06/26 11:02:41;;;;;;;4.03;0.70;;;27.60;99.90;;;;;;5092714;28;20192;-84
2021/06/26 11:05:09;;;;;;;0.70;0.63;;;27.60;99.90;;;;;;5092905;28;20561;-85
2021/06/26 11:07:35;;;;;;;0.50;0.50;;;27.60;99.90;;;;;;5091172;28;20695;-85
2021/06/26 11:10:12;;;;;;;0.70;0.70;;;27.70;99.90;;;;;;5074117;28;20723;-85
2021/06/26 11:12:45;;;;;;;1.47;1.37;;;27.20;99.90;;;;;;5074290;28;20211;-84
2021/06/26 11:15:12;;;;;;;0.63;0.63;;;26.50;99.90;;;;;;5092780;28;20184;-84
2021/06/26 11:17:43;;;;;;;1.33;0.60;;;26.50;99.90;;;;;;5074103;28;20278;-85
2021/06/26 11:20:15;;;;;;;0.40;0.40;;;26.90;99.90;;;;;;5092904;28;20184;-84
2021/06/26 11:22:51;;;;;;;0.67;0.67;;;26.70;99.90;;;;;;5074230;28;20250;-84
2021/06/26 11:25:17;;;;;;;0.70;0.70;;;26.90;99.90;;;;;;5092813;28;20184;-84
2021/06/26 11:27:43;;;;;;;1.03;0.67;;;26.10;99.90;;;;;;5053911;28;20204;-84
2021/06/26 11:30:09;;;;;;;0.90;0.83;;;25.90;99.90;;;;;;5054007;28;20177;-85
2021/06/26 11:32:36;;;;;;;1.37;1.27;;;25.00;99.90;;;;;;5077991;28;20696;-85
2021/06/26 11:35:03;;;;;;;1.20;0.60;;;24.70;99.90;;;;;;5074698;28;20532;-84
2021/06/26 11:37:52;;;;;;;0.50;0.40;;;24.70;99.90;;;;;;5092283;28;20176;-83
2021/06/26 11:40:24;;;;;;;0.60;0.60;;;25.20;99.90;;;;;;5078706;28;20257;-85
2021/06/26 11:42:53;;;;;;;0.87;0.57;;;25.80;99.90;;;;;;5074079;28;20223;-84
2021/06/26 11:45:44;;;;;;;0.77;0.70;;;26.20;99.90;;;;;;5066769;28;20200;-83
2021/06/26 11:48:14;;;;;;;0.70;0.70;;;26.90;99.90;;;;;;5053193;28;20181;-86
2021/06/26 11:50:48;;;;;;;0.50;0.50;;;27.30;99.90;;;;;;5054162;28;20181;-85
2021/06/26 11:53:15;;;;;;;0.90;0.90;;;27.70;99.90;;;;;;5053984;28;20243;-85
2021/06/26 11:55:55;;;;;;;0.90;0.90;;;28.00;99.90;;;;;;5070671;28;20241;-85
2021/06/26 11:58:36;;;;;;;0.70;0.70;;;28.30;99.90;;;;;;5073380;28;20192;-85
2021/06/26 12:01:13;;;;;;;0.53;0.53;;;28.50;99.90;;;;;;5078647;28;20203;-86
2021/06/26 12:03:40;;;;;;;0.40;0.40;;;28.60;99.90;;;;;;5074134;28;20215;-84
2021/06/26 12:06:11;;;;;;;0.60;0.60;;;28.90;99.90;;;;;;5073987;28;20212;-84
2021/06/26 12:08:54;;;;;;;0.70;0.70;;;29.10;99.90;;;;;;5063737;28;20668;-84
2021/06/26 12:11:21;;;;;;;1.23;1.00;;;29.10;99.90;;;;;;5054032;28;20189;-85
2021/06/26 12:13:49;;;;;;;1.43;1.07;;;28.70;99.90;;;;;;5054084;28;20262;-84
2021/06/26 12:16:16;;;;;;;0.50;0.50;;;27.90;99.90;;;;;;5054050;28;20189;-85
2021/06/26 12:18:57;;;;;;;0.80;0.80;;;27.90;99.90;;;;;;5071362;28;20269;-85
2021/06/26 12:21:47;;;;;;;2.97;0.70;;;27.50;99.90;;;;;;5072572;28;20330;-83
2021/06/26 12:24:28;;;;;;;0.50;0.50;;;27.90;99.90;;;;;;5067325;28;20798;-85
2021/06/26 12:27:18;;;;;;;0.50;0.50;;;27.90;99.90;;;;;;5057344;28;20183;-84
2021/06/26 12:29:58;;;;;;;0.70;0.70;;;26.70;99.90;;;;;;5057433;28;20177;-85
2021/06/26 12:32:29;;;;;;;0.20;0.20;;;26.40;99.90;;;;;;5061705;28;20184;-84
2021/06/26 12:34:56;;;;;;;0.67;0.67;;;26.80;99.90;;;;;;5095455;28;20257;-85
2021/06/26 12:37:40;;;;;;;0.97;0.40;;;27.20;99.90;;;;;;5095334;28;20268;-84
2021/06/26 12:40:28;;;;;;;0.77;0.77;;;27.40;99.90;;;;;;5096041;28;20255;-85
2021/06/26 12:43:06;;;;;;;1.03;0.77;;;27.80;99.90;;;;;;5077624;28;20219;-85
2021/06/26 12:45:33;;;;;;;0.93;0.70;;;27.70;99.90;;;;;;5079794;28;20256;-83
2021/06/26 12:48:03;;;;;;;0.90;0.70;;;27.40;99.90;;;;;;5057665;28;20276;-84
2021/06/26 12:50:33;;;;;;;0.70;0.70;;;26.50;99.90;;;;;;5075207;28;20617;-85
2021/06/26 12:52:59;;;;;;;0.40;0.37;;;26.30;99.90;;;;;;5057421;28;20227;-85